Current Conditions
Misty
Conditions



Pressure
1035.92 (hPa) - 30.59 (inHG)
Visibility

3.3 (km) - 2.1 (miles)
   Temperature
0  °C
Temperature
0  °C
Dewpoint
100  %
 Humidity
   Wind Speed
5.4  m/s
12  mph
19  km/h
10  kts
   Wind Direction
N
45°
E
90°
135°
S
180°
225°
W
270°
315°
 210°

South South
West
   Airport Data
ESGG
Gothenburg-Landvetter Airport
Metar :ESGG 070520Z 21010KT 3300 BR OVC002 00/M00 Q1036
Tue 7th February 06:20 am
   Raw Metar Info
Raw METAR is the most common format in the world for the transmission of observational weather data. It is highly standardized through the International Civil Aviation Organization (ICAO), which allows it to be understood throughout most of the world.
   API Info
Data Provided by
https://www.checkwx.com/weather/ESGG

Aviation Weather providing METAR, TAF, AIRMET, SIGMET and OUTLOOK Weather Reports
   © Info
CSS/SVG/PHP scripts were developed by weather34.com for use in the weather34 template © 2015-2023

Guide Info provided by Metar-Wikipedia